Terminal Aerodrome Forecast
Issued by NWS

Home | Current Version | Previous Version | Text Only | Print | Product List | Glossary On
Versions: 1 2 3 4 5 6 7 8 9 10 11 12 13 14 15 16
000
FTUS45 KGJT 261733
TAFMTJ
TAF
KMTJ 261733Z 2618/2718 35005KT P6SM SCT150
     FM262100 32007KT P6SM FEW110 SCT150
     FM270000 26007KT P6SM SCT110
     FM270400 17006KT P6SM BKN120
     FM270600 13006KT P6SM BKN120
     FM271500 06004KT P6SM SCT110=

USA.gov is the U.S. government's official web portal to all federal, state and local government web resources and services.